TimeMST,TemperatureF,Dew PointF,Humidity,Sea Level PressureIn,VisibilityMPH,Wind Direction,Wind SpeedMPH,Gust SpeedMPH,PrecipitationIn,Events,Conditions,WindDirDegrees,DateUTC
12:53 AM,45.0,30.9,58,29.63,10.0,West,35.7,48.3,N/A,,Clear,280,2014-02-15 07:53:00
1:53 AM,46.0,30.0,54,29.61,10.0,West,40.3,51.8,N/A,,Clear,270,2014-02-15 08:53:00
2:53 AM,46.0,30.0,54,29.62,10.0,West,35.7,47.2,N/A,,Clear,270,2014-02-15 09:53:00
3:53 AM,46.9,30.0,52,29.68,10.0,West,34.5,51.8,N/A,,Clear,280,2014-02-15 10:53:00
4:53 AM,48.0,30.0,50,29.73,10.0,WNW,26.5,39.1,N/A,,Overcast,290,2014-02-15 11:53:00
5:53 AM,33.1,30.9,92,29.89,9.0,NNE,18.4,32.2,N/A,,Overcast,30,2014-02-15 12:53:00
6:28 AM,30.2,28.4,93,29.86,2.5,NNE,18.4,24.2,0.00,Snow,Light Snow,20,2014-02-15 13:28:00
6:48 AM,30.2,28.4,93,29.89,1.5,NNE,11.5,20.7,0.02,Snow,Light Snow,20,2014-02-15 13:48:00
6:53 AM,30.0,28.9,96,29.95,1.2,NNE,11.5,19.6,0.02,Snow,Light Snow,20,2014-02-15 13:53:00
7:10 AM,30.2,28.4,93,29.88,1.5,NNE,11.5,-,0.01,Snow,Light Snow,30,2014-02-15 14:10:00
7:53 AM,30.0,28.9,96,29.98,0.8,NNE,11.5,19.6,0.03,Snow,Light Snow,20,2014-02-15 14:53:00
8:29 AM,30.2,28.4,93,29.92,1.0,North,15.0,23.0,0.02,Snow,Light Snow,10,2014-02-15 15:29:00
8:38 AM,30.2,28.4,93,29.94,2.0,North,15.0,24.2,0.02,Snow,Light Snow,10,2014-02-15 15:38:00
8:49 AM,30.2,26.6,86,29.95,0.8,North,17.3,24.2,0.02,Snow,Light Snow,10,2014-02-15 15:49:00
8:53 AM,28.9,27.0,92,30.01,0.8,NNE,17.3,24.2,0.02,Snow,Light Snow,20,2014-02-15 15:53:00
9:03 AM,28.4,26.6,93,29.96,1.2,North,16.1,26.5,0.00,Snow,Light Snow,10,2014-02-15 16:03:00
9:10 AM,28.4,26.6,93,29.96,0.8,North,16.1,-,0.01,Snow,Light Snow,10,2014-02-15 16:10:00
9:32 AM,28.4,28.4,100,29.98,0.2,North,13.8,23.0,0.01,Fog-Snow,Snow,360,2014-02-15 16:32:00
9:50 AM,28.4,26.6,93,29.99,0.2,North,13.8,23.0,0.03,Fog-Snow,Heavy Snow,10,2014-02-15 16:50:00
9:53 AM,28.9,27.0,92,30.04,0.2,NNE,17.3,-,0.03,Fog-Snow,Heavy Snow,20,2014-02-15 16:53:00
10:18 AM,28.4,28.4,100,30.00,0.2,NNE,9.2,-,0.01,Fog,Light Freezing Fog,20,2014-02-15 17:18:00
10:53 AM,28.9,27.0,92,30.06,0.2,NNE,12.7,21.9,0.04,Fog,Light Freezing Fog,20,2014-02-15 17:53:00
11:27 AM,30.2,26.6,86,30.03,0.2,NNE,11.5,-,0.03,,Mist,20,2014-02-15 18:27:00
11:32 AM,30.2,26.6,86,30.03,0.8,NNE,10.4,-,0.03,,Mist,20,2014-02-15 18:32:00
11:53 AM,30.9,26.1,82,30.02,2.0,North,10.4,-,0.03,Snow,Light Snow,10,2014-02-15 18:53:00
12:08 PM,30.2,26.6,86,30.03,7.0,NNE,12.7,-,0.00,Snow,Light Snow,20,2014-02-15 19:08:00
12:17 PM,30.2,26.6,86,30.02,9.0,North,9.2,20.7,0.00,,Overcast,10,2014-02-15 19:17:00
12:53 PM,30.9,26.1,82,30.01,7.0,North,11.5,-,0.00,,Overcast,360,2014-02-15 19:53:00
1:05 PM,30.2,26.6,86,30.03,2.0,North,10.4,-,0.00,Snow,Light Snow,10,2014-02-15 20:05:00
1:14 PM,30.2,26.6,86,30.03,1.2,North,8.1,-,0.00,Snow,Light Snow,10,2014-02-15 20:14:00
1:35 PM,30.2,26.6,86,30.03,2.0,North,5.8,-,0.01,Snow,Light Snow,360,2014-02-15 20:35:00
1:43 PM,30.2,26.6,86,30.03,9.0,North,5.8,-,0.01,,Overcast,350,2014-02-15 20:43:00
1:53 PM,30.9,26.1,82,30.01,10.0,NNW,5.8,-,0.01,,Overcast,330,2014-02-15 20:53:00
2:53 PM,32.0,27.0,82,30.01,10.0,NW,8.1,-,0.00,,Overcast,310,2014-02-15 21:53:00
3:53 PM,33.1,27.0,78,29.99,10.0,WSW,5.8,-,N/A,,Overcast,250,2014-02-15 22:53:00
4:53 PM,33.1,28.0,82,29.99,10.0,ESE,4.6,-,N/A,,Overcast,110,2014-02-15 23:53:00
5:23 PM,32.0,28.4,87,30.03,10.0,South,5.8,-,N/A,,Overcast,180,2014-02-16 00:23:00
5:45 PM,30.2,30.2,100,30.02,10.0,South,9.2,-,N/A,,Overcast,180,2014-02-16 00:45:00
5:53 PM,30.9,30.0,96,30.09,9.0,South,4.6,-,N/A,,Overcast,190,2014-02-16 00:53:00
6:31 PM,30.2,28.4,93,30.03,7.0,SSW,10.4,-,N/A,,Overcast,210,2014-02-16 01:31:00
6:53 PM,32.0,30.0,92,30.10,5.0,SSW,18.4,23.0,N/A,,Overcast,200,2014-02-16 01:53:00
7:53 PM,30.0,28.9,96,30.09,3.0,SSW,20.7,28.8,N/A,,Overcast,200,2014-02-16 02:53:00
8:53 PM,30.0,28.0,92,30.10,8.0,SSW,25.3,32.2,N/A,,Overcast,210,2014-02-16 03:53:00
9:34 PM,30.2,26.6,86,30.02,9.0,SW,20.7,-,N/A,,Partly Cloudy,220,2014-02-16 04:34:00
9:53 PM,30.0,27.0,88,30.08,10.0,SSW,18.4,-,N/A,,Clear,200,2014-02-16 04:53:00
10:53 PM,28.9,25.0,85,30.07,10.0,SSW,17.3,-,N/A,,Clear,210,2014-02-16 05:53:00
11:53 PM,28.9,25.0,85,30.04,10.0,SSW,17.3,21.9,N/A,,Clear,210,2014-02-16 06:53:00